createdAt,value
2023-03-20T00:01:17.263Z,4.01
2023-03-20T00:03:44.301Z,3.89
2023-03-20T00:06:25.076Z,4.08
2023-03-20T00:08:54.049Z,3.97
2023-03-20T00:11:28.215Z,3.96
2023-03-20T00:14:13.488Z,4.11
2023-03-20T00:16:43.678Z,3.96
2023-03-20T00:19:17.665Z,4.11
2023-03-20T00:21:47.545Z,4.11
2023-03-20T00:24:15.925Z,3.99
2023-03-20T00:26:44.215Z,4.19
2023-03-20T00:29:18.610Z,4.06
2023-03-20T00:31:45.271Z,4.01
2023-03-20T00:34:17.649Z,4.17
2023-03-20T00:36:44.238Z,4.01
2023-03-20T00:39:11.017Z,4.08
2023-03-20T00:41:57.191Z,4.13
2023-03-20T00:44:29.677Z,4.01
2023-03-20T00:47:19.600Z,4.18
2023-03-20T00:49:51.338Z,4.01
2023-03-20T00:52:19.809Z,4.06
2023-03-20T00:54:47.029Z,4.18
2023-03-20T00:57:28.421Z,4.02
2023-03-20T00:59:57.584Z,4.12
2023-03-20T01:02:27.227Z,4.09
2023-03-20T01:04:54.231Z,4.02
2023-03-20T01:07:21.850Z,4.13
2023-03-20T01:09:48.802Z,4.13
2023-03-20T01:12:17.801Z,4.01
2023-03-20T01:14:46.374Z,4.17
2023-03-20T01:17:21.043Z,3.96
2023-03-20T01:19:47.903Z,4.13
2023-03-20T01:22:14.969Z,4.16
2023-03-20T01:24:42.227Z,4.02
2023-03-20T01:27:17.848Z,4.19
2023-03-20T01:29:45.366Z,4.04
2023-03-20T01:32:14.388Z,4.04
2023-03-20T01:34:42.437Z,4.17
2023-03-20T01:37:17.078Z,3.96
2023-03-20T01:39:43.966Z,4.03
2023-03-20T01:42:14.370Z,4.13
2023-03-20T01:44:41.129Z,3.94
2023-03-20T01:47:16.985Z,4.12
2023-03-20T01:50:19.097Z,3.98
2023-03-20T01:52:48.771Z,3.95
2023-03-20T01:55:15.646Z,4.11
2023-03-20T01:57:42.335Z,3.92
2023-03-20T02:00:15.690Z,3.99
2023-03-20T02:02:45.184Z,4.08
2023-03-20T02:05:16.572Z,3.91
2023-03-20T02:07:47.605Z,4.06
2023-03-20T02:10:18.145Z,3.97
2023-03-20T02:12:45.927Z,3.88
2023-03-20T02:15:16.080Z,4.05
2023-03-20T02:17:43.599Z,3.88
2023-03-20T02:20:23.031Z,3.89
2023-03-20T02:23:34.011Z,3.97
2023-03-20T02:26:29.324Z,3.74
2023-03-20T02:29:16.894Z,3.92
2023-03-20T02:31:58.332Z,3.83
2023-03-20T02:35:02.824Z,3.91
2023-03-20T02:37:56.890Z,3.89
2023-03-20T02:40:47.311Z,3.87
2023-03-20T02:43:57.940Z,3.87
2023-03-20T02:46:40.877Z,3.76
2023-03-20T02:49:26.291Z,3.98
2023-03-20T02:52:05.254Z,3.86
2023-03-20T02:54:53.594Z,3.92
2023-03-20T02:57:41.785Z,3.98
2023-03-20T03:00:20.163Z,3.83
2023-03-20T03:03:12.741Z,4.00
2023-03-20T03:05:55.689Z,3.80
2023-03-20T03:08:28.604Z,3.91
2023-03-20T03:11:01.471Z,3.94
2023-03-20T03:13:32.568Z,3.80
2023-03-20T03:16:05.182Z,3.97
2023-03-20T03:18:34.618Z,3.91
2023-03-20T03:21:05.251Z,3.87
2023-03-20T03:23:35.315Z,4.06
2023-03-20T03:26:06.790Z,3.87
2023-03-20T03:28:41.995Z,3.94
2023-03-20T03:31:13.449Z,3.93
2023-03-20T03:33:43.467Z,3.80
2023-03-20T03:36:41.412Z,3.97
2023-03-20T03:39:11.021Z,3.67
2023-03-20T03:42:11.511Z,3.80
2023-03-20T03:44:44.052Z,3.72
2023-03-20T03:47:35.029Z,3.68
2023-03-20T03:50:11.640Z,3.88
2023-03-20T03:52:41.592Z,3.71
2023-03-20T03:55:18.575Z,3.69
2023-03-20T03:57:50.259Z,3.80
2023-03-20T04:00:23.828Z,3.74
2023-03-20T04:02:54.166Z,3.88
2023-03-20T04:05:22.883Z,3.86
2023-03-20T04:07:54.978Z,3.79
2023-03-20T04:10:21.846Z,4.00
2023-03-20T04:12:48.644Z,3.88
2023-03-20T04:15:16.350Z,3.99
2023-03-20T04:17:43.470Z,4.01
2023-03-20T04:20:12.375Z,3.91
2023-03-20T04:22:39.670Z,4.11
2023-03-20T04:25:08.887Z,3.99
2023-03-20T04:27:36.039Z,3.97
2023-03-20T04:30:02.759Z,4.09
2023-03-20T04:32:29.385Z,3.79
2023-03-20T04:34:57.532Z,3.91
2023-03-20T04:37:24.117Z,4.01
2023-03-20T04:39:52.338Z,3.86
2023-03-20T04:42:20.158Z,3.87
2023-03-20T04:44:46.798Z,4.09
2023-03-20T04:47:13.438Z,3.88
2023-03-20T04:49:40.476Z,3.85
2023-03-20T04:52:07.363Z,4.06
2023-03-20T04:54:34.231Z,3.87
2023-03-20T04:57:02.335Z,3.82
2023-03-20T04:59:28.926Z,4.03
2023-03-20T05:01:55.750Z,3.92
2023-03-20T05:04:22.763Z,3.77
2023-03-20T05:06:49.779Z,3.98
2023-03-20T05:30:30.771Z,3.88
2023-03-20T05:32:58.101Z,3.27
2023-03-20T05:35:24.749Z,3.05
2023-03-20T05:37:52.817Z,3.27
2023-03-20T05:40:20.501Z,3.11
2023-03-20T05:42:47.100Z,3.05
2023-03-20T05:45:16.933Z,3.31
2023-03-20T05:47:43.520Z,3.12
2023-03-20T05:50:12.406Z,3.12
2023-03-20T05:52:39.098Z,3.31
2023-03-20T05:55:06.080Z,3.00
2023-03-20T05:57:32.697Z,2.92
2023-03-20T05:59:59.291Z,3.06
2023-03-20T06:02:26.176Z,3.06
2023-03-20T06:04:52.814Z,3.01
2023-03-20T06:07:20.076Z,3.02
2023-03-20T06:09:46.738Z,3.09
2023-03-20T06:12:14.742Z,2.94
2023-03-20T06:14:41.330Z,3.07
2023-03-20T06:17:07.997Z,3.11
2023-03-20T06:19:35.933Z,2.96
2023-03-20T06:22:02.776Z,3.00
2023-03-20T06:24:30.746Z,3.12
2023-03-20T06:26:57.545Z,3.02
2023-03-20T06:29:25.003Z,3.09
2023-03-20T06:31:52.566Z,3.27
2023-03-20T06:34:19.206Z,3.11
2023-03-20T06:36:45.869Z,3.11
2023-03-20T06:39:12.998Z,3.44
2023-03-20T06:41:39.913Z,3.25
2023-03-20T06:44:06.964Z,3.34
2023-03-20T06:46:33.697Z,3.49
2023-03-20T06:49:00.376Z,3.34
2023-03-20T06:51:27.060Z,3.36
2023-03-20T06:53:53.751Z,3.60
2023-03-20T06:56:20.485Z,3.53
2023-03-20T06:58:47.143Z,3.58
2023-03-20T07:01:17.298Z,3.76
2023-03-20T07:03:44.117Z,3.83
2023-03-20T07:06:12.283Z,3.92
2023-03-20T07:08:39.641Z,4.11
2023-03-20T07:11:06.633Z,4.19
2023-03-20T07:13:35.238Z,4.22
2023-03-20T07:16:04.892Z,4.19
2023-03-20T07:18:32.295Z,4.05
2023-03-20T07:21:02.690Z,3.97
2023-03-20T07:23:30.777Z,3.90
2023-03-20T07:26:00.105Z,3.89
2023-03-20T07:28:27.143Z,3.75
2023-03-20T07:30:55.085Z,3.65
2023-03-20T07:33:21.847Z,3.54
2023-03-20T07:35:53.820Z,3.44
2023-03-20T07:38:22.629Z,3.29
2023-03-20T07:40:49.711Z,3.22
2023-03-20T07:43:17.107Z,3.13
2023-03-20T07:45:43.796Z,3.06
2023-03-20T07:48:10.488Z,3.00
2023-03-20T07:50:37.198Z,2.95
2023-03-20T07:53:03.808Z,2.93
2023-03-20T07:55:30.514Z,2.89
2023-03-20T07:57:57.117Z,2.81
2023-03-20T08:00:27.814Z,2.76
2023-03-20T08:02:57.006Z,2.75
2023-03-20T08:05:24.632Z,2.70
2023-03-20T08:07:51.628Z,2.68
2023-03-20T08:10:18.672Z,2.65
2023-03-20T08:12:46.710Z,2.67
2023-03-20T08:15:13.696Z,2.65
2023-03-20T08:17:44.727Z,2.56
2023-03-20T08:20:13.153Z,2.54
2023-03-20T08:22:40.865Z,2.57
2023-03-20T08:25:08.578Z,2.53
2023-03-20T08:27:36.725Z,2.46
2023-03-20T08:30:04.785Z,2.48
2023-03-20T08:32:31.850Z,2.49
2023-03-20T08:34:59.186Z,2.43
2023-03-20T08:37:25.984Z,2.47
2023-03-20T08:39:53.773Z,2.49
2023-03-20T08:42:21.758Z,2.49
2023-03-20T08:44:48.417Z,2.44
2023-03-20T08:47:15.055Z,2.46
2023-03-20T08:49:42.067Z,2.49
2023-03-20T08:52:08.884Z,2.50
2023-03-20T08:54:35.645Z,2.54
2023-03-20T08:57:03.747Z,2.56
2023-03-20T08:59:32.709Z,2.58
2023-03-20T09:01:59.387Z,2.62
2023-03-20T09:04:26.253Z,2.65
2023-03-20T09:06:52.965Z,2.71
2023-03-20T09:09:21.563Z,2.70
2023-03-20T09:11:48.355Z,2.75
2023-03-20T09:14:15.188Z,2.77
2023-03-20T09:16:42.238Z,2.78
2023-03-20T09:19:08.926Z,2.75
2023-03-20T09:21:35.639Z,2.76
2023-03-20T09:24:02.230Z,2.83
2023-03-20T09:26:30.120Z,2.89
2023-03-20T09:28:59.114Z,2.84
2023-03-20T09:31:27.301Z,2.86
2023-03-20T09:33:54.265Z,2.84
2023-03-20T09:36:22.825Z,2.86
2023-03-20T09:38:50.778Z,2.89
2023-03-20T09:41:22.533Z,2.82
2023-03-20T09:44:03.327Z,2.83
2023-03-20T09:46:49.367Z,2.89
2023-03-20T09:49:35.462Z,2.88
2023-03-20T09:52:12.755Z,2.85
2023-03-20T09:54:54.754Z,2.86
2023-03-20T09:57:29.581Z,2.63
2023-03-20T10:00:20.335Z,2.35
2023-03-20T10:02:54.475Z,2.48
2023-03-20T10:05:36.045Z,2.66
2023-03-20T10:08:04.965Z,2.75
2023-03-20T10:10:58.038Z,2.58
2023-03-20T10:13:53.980Z,2.39
2023-03-20T10:16:39.146Z,2.58
2023-03-20T10:19:28.750Z,2.79
2023-03-20T10:22:26.359Z,2.56
2023-03-20T10:24:59.262Z,2.53
2023-03-20T10:27:40.679Z,2.86
2023-03-20T10:30:34.100Z,2.74
2023-03-20T10:33:29.919Z,2.69
2023-03-20T10:36:05.334Z,2.89
2023-03-20T10:38:53.082Z,2.71
2023-03-20T10:41:28.803Z,2.78
2023-03-20T10:43:57.724Z,2.96
2023-03-20T10:46:30.535Z,2.84
2023-03-20T10:49:16.707Z,3.07
2023-03-20T10:51:51.253Z,3.02
2023-03-20T10:54:31.797Z,2.87
2023-03-20T10:57:02.442Z,3.11
2023-03-20T10:59:38.882Z,3.00
2023-03-20T11:02:13.318Z,3.00
2023-03-20T11:04:40.894Z,3.22
2023-03-20T11:07:35.680Z,3.05
2023-03-20T11:10:06.407Z,3.04
2023-03-20T11:12:37.449Z,3.20
2023-03-20T11:15:17.707Z,2.94
2023-03-20T11:17:52.296Z,3.10
2023-03-20T11:20:18.872Z,3.16
2023-03-20T11:22:48.897Z,2.99
2023-03-20T11:25:31.146Z,3.22
2023-03-20T11:28:18.395Z,3.27
2023-03-20T11:31:03.572Z,3.07
2023-03-20T11:33:31.587Z,3.31
2023-03-20T11:35:59.524Z,3.09
2023-03-20T11:38:26.353Z,2.96
2023-03-20T11:40:53.685Z,3.21
2023-03-20T11:43:23.359Z,3.12
2023-03-20T11:45:57.441Z,3.04
2023-03-20T12:47:48.345Z,3.61
2023-03-20T12:51:03.827Z,3.21
2023-03-20T12:53:55.226Z,3.52
2023-03-20T12:56:31.474Z,3.44
2023-03-20T12:59:24.796Z,3.52
2023-03-20T13:02:30.268Z,3.65
2023-03-20T13:05:08.337Z,3.56
2023-03-20T13:08:07.674Z,3.78
2023-03-20T13:10:46.479Z,3.56
2023-03-20T13:13:42.403Z,3.71
2023-03-20T13:16:24.125Z,3.69
2023-03-20T13:19:11.600Z,3.65
2023-03-20T13:21:59.112Z,3.87
2023-03-20T13:24:39.417Z,3.72
2023-03-20T13:27:27.263Z,3.96
2023-03-20T13:30:08.522Z,3.78
2023-03-20T13:33:06.962Z,3.74
2023-03-20T13:35:33.708Z,3.89
2023-03-20T13:38:07.370Z,3.70
2023-03-20T13:40:43.998Z,3.83
2023-03-20T13:43:37.621Z,3.85
2023-03-20T13:46:22.129Z,3.71
2023-03-20T13:48:51.475Z,3.91
2023-03-20T13:51:34.639Z,3.69
2023-03-20T13:54:21.380Z,3.81
2023-03-20T13:57:45.480Z,3.92
2023-03-20T14:00:31.448Z,3.99
2023-03-20T14:03:13.248Z,4.23
2023-03-20T14:05:41.935Z,4.09
2023-03-20T14:08:33.629Z,4.23
2023-03-20T14:11:10.131Z,3.91
2023-03-20T14:13:37.276Z,3.78
2023-03-20T14:16:08.927Z,3.96
2023-03-20T14:18:36.560Z,3.70
2023-03-20T14:21:11.729Z,3.75
2023-03-20T14:23:44.319Z,3.76
2023-03-20T14:26:23.626Z,3.56
2023-03-20T14:28:54.852Z,3.77
2023-03-20T14:31:24.951Z,3.74
2023-03-20T14:34:14.680Z,3.58
2023-03-20T14:36:44.242Z,3.83
2023-03-20T14:39:28.957Z,3.66
2023-03-20T14:41:58.507Z,3.54
2023-03-20T14:44:49.789Z,3.71
2023-03-20T14:47:26.116Z,3.36
2023-03-20T14:49:52.736Z,3.38
2023-03-20T14:52:25.456Z,3.54
2023-03-20T14:54:54.151Z,3.34
2023-03-20T14:57:45.479Z,3.34
2023-03-20T15:00:26.882Z,3.47
2023-03-20T15:03:17.659Z,3.24
2023-03-20T15:05:45.901Z,3.35
2023-03-20T15:08:29.955Z,3.38
2023-03-20T15:11:00.031Z,3.28
2023-03-20T15:13:28.314Z,3.57
2023-03-20T15:16:05.060Z,3.32
2023-03-20T15:18:37.947Z,3.33
2023-03-20T15:21:11.538Z,3.29
2023-03-20T15:23:41.543Z,2.88
2023-03-20T15:26:09.771Z,3.06
2023-03-20T15:28:37.800Z,3.09
2023-03-20T15:31:06.992Z,2.90
2023-03-20T15:33:42.085Z,3.06
2023-03-20T15:36:21.404Z,3.02
2023-03-20T15:38:49.285Z,2.83
2023-03-20T15:41:38.283Z,3.05
2023-03-20T15:44:20.099Z,2.85
2023-03-20T15:47:20.795Z,2.67
2023-03-20T15:49:55.964Z,2.79
2023-03-20T15:52:28.482Z,2.57
2023-03-20T15:54:59.283Z,2.41
2023-03-20T15:57:38.090Z,2.61
2023-03-20T16:00:13.368Z,2.40
2023-03-20T16:02:40.613Z,2.37
2023-03-20T16:05:13.842Z,2.63
2023-03-20T16:07:41.236Z,2.53
2023-03-20T16:10:30.863Z,2.68
2023-03-20T16:12:58.078Z,2.88
2023-03-20T16:15:27.777Z,2.77
2023-03-20T16:17:58.021Z,2.83
2023-03-20T16:20:28.879Z,3.08
2023-03-20T16:23:05.423Z,2.88
2023-03-20T16:25:33.256Z,2.94
2023-03-20T16:27:59.880Z,3.03
2023-03-20T16:30:30.624Z,2.77
2023-03-20T16:33:13.552Z,2.81
2023-03-20T16:35:44.611Z,2.74
2023-03-20T16:38:29.373Z,2.46
2023-03-20T16:41:13.191Z,2.56
2023-03-20T16:43:39.994Z,2.40
2023-03-20T16:46:07.297Z,2.14
2023-03-20T16:48:37.863Z,2.22
2023-03-20T16:51:29.499Z,2.00
2023-03-20T16:53:59.145Z,1.78
2023-03-20T16:56:34.947Z,1.95
2023-03-20T16:59:16.581Z,1.69
2023-03-20T17:01:45.163Z,1.57
2023-03-20T17:04:19.073Z,1.70
2023-03-20T17:07:07.477Z,1.30
2023-03-20T17:09:34.140Z,1.36
2023-03-20T17:12:14.926Z,1.38
2023-03-20T17:14:41.751Z,1.16
2023-03-20T17:17:19.331Z,1.15
2023-03-20T17:19:47.511Z,1.13
2023-03-20T17:22:22.030Z,0.92
2023-03-20T17:24:48.689Z,0.88
2023-03-20T17:27:18.351Z,0.90
2023-03-20T17:29:47.600Z,0.71
2023-03-20T17:32:24.012Z,0.61
2023-03-20T17:34:51.316Z,0.75
2023-03-20T17:37:24.127Z,0.56
2023-03-20T17:39:50.912Z,0.51
2023-03-20T17:42:18.805Z,0.63
2023-03-20T17:44:48.375Z,0.58
2023-03-20T17:47:18.122Z,0.28
2023-03-20T17:49:45.705Z,0.39
2023-03-20T17:52:17.788Z,0.44
2023-03-20T17:54:44.901Z,0.34
2023-03-20T17:57:27.010Z,0.36
2023-03-20T17:59:53.702Z,0.50
2023-03-20T18:02:20.440Z,0.39
2023-03-20T18:04:47.343Z,0.53
2023-03-20T18:07:15.026Z,0.60
2023-03-20T18:09:43.097Z,0.47
2023-03-20T18:12:15.889Z,0.44
2023-03-20T18:14:43.224Z,0.54
2023-03-20T18:17:12.704Z,0.37
2023-03-20T18:19:39.786Z,0.36
2023-03-20T18:22:07.073Z,0.40
2023-03-20T18:24:33.810Z,0.21
2023-03-20T18:27:00.776Z,0.18
2023-03-20T18:29:27.758Z,0.29
2023-03-20T18:31:54.481Z,0.15
2023-03-20T18:34:21.307Z,0.10
2023-03-20T18:36:47.993Z,0.27
2023-03-20T18:39:28.917Z,0.11
2023-03-20T18:41:55.564Z,0.03
2023-03-20T18:44:22.440Z,0.13
2023-03-20T18:46:49.395Z,-0.07
2023-03-20T18:49:18.035Z,-0.13
2023-03-20T18:51:46.069Z,-0.01
2023-03-20T18:54:15.158Z,-0.19
2023-03-20T18:56:43.020Z,-0.30
2023-03-20T18:59:12.478Z,-0.13
2023-03-20T19:01:39.493Z,-0.21
2023-03-20T19:04:06.419Z,-0.39
2023-03-20T19:06:33.437Z,-0.26
2023-03-20T19:09:04.897Z,-0.20
2023-03-20T19:11:31.598Z,-0.29
2023-03-20T19:13:58.575Z,-0.18
2023-03-20T19:16:27.055Z,-0.21
2023-03-20T19:18:56.554Z,-0.65
2023-03-20T19:21:26.611Z,-0.59
2023-03-20T19:23:59.034Z,-0.42
2023-03-20T19:26:28.020Z,-0.44
2023-03-20T19:28:56.484Z,-0.39
2023-03-20T19:31:24.107Z,-0.20
2023-03-20T19:33:53.223Z,-0.27
2023-03-20T19:36:27.675Z,-0.26
2023-03-20T19:38:54.810Z,-0.14
2023-03-20T19:41:21.483Z,-0.28
2023-03-20T19:43:53.638Z,-0.29
2023-03-20T19:46:39.737Z,-0.16
2023-03-20T19:49:28.986Z,-0.38
2023-03-20T19:51:57.147Z,-0.44
2023-03-20T19:54:23.997Z,-0.31
2023-03-20T19:56:50.673Z,-0.60
2023-03-20T19:59:17.423Z,-0.67
2023-03-20T20:01:46.261Z,-0.59
2023-03-20T20:04:13.146Z,-0.86
2023-03-20T20:06:41.615Z,-1.02
2023-03-20T20:09:09.671Z,-0.87
2023-03-20T20:11:36.298Z,-1.00
2023-03-20T20:14:08.706Z,-1.27
2023-03-20T20:16:37.699Z,-1.16
2023-03-20T20:19:04.874Z,-1.19
2023-03-20T20:22:17.135Z,-1.26
2023-03-20T20:24:19.125Z,-1.13
2023-03-20T20:27:07.046Z,-1.09
2023-03-20T20:29:41.182Z,-1.23
2023-03-20T20:32:07.885Z,-1.16
2023-03-20T20:40:12.170Z,-1.11
2023-03-20T20:42:40.543Z,-1.05
2023-03-20T20:45:11.846Z,-1.11
2023-03-20T20:47:42.111Z,-1.01
2023-03-20T20:50:09.977Z,-0.96
2023-03-20T20:52:39.164Z,-1.00
2023-03-20T20:55:22.248Z,-1.13
2023-03-20T20:57:50.506Z,-0.97
2023-03-20T21:00:18.466Z,-1.12
2023-03-20T21:02:45.197Z,-1.14
2023-03-20T21:05:15.694Z,-1.03
2023-03-20T21:07:44.829Z,-1.14
2023-03-20T21:10:13.863Z,-1.25
2023-03-20T21:12:57.784Z,-1.13
2023-03-20T21:15:28.440Z,-1.31
2023-03-20T21:18:01.025Z,-1.44
2023-03-20T21:20:29.851Z,-1.30
2023-03-20T21:22:56.446Z,-1.37
2023-03-20T21:25:36.394Z,-1.50
2023-03-20T21:28:06.737Z,-1.42
2023-03-20T21:30:33.743Z,-1.68
2023-03-20T21:33:00.682Z,-1.77
2023-03-20T21:35:27.641Z,-1.61
2023-03-20T21:40:42.750Z,-1.83
2023-03-20T21:43:10.412Z,-1.66
2023-03-20T21:46:25.186Z,-1.64
2023-03-20T21:49:03.792Z,-1.62
2023-03-20T22:02:25.216Z,-1.62
2023-03-20T22:08:19.258Z,-1.71
2023-03-20T22:14:22.320Z,-1.79
2023-03-20T22:22:48.539Z,-1.92
2023-03-20T22:46:55.644Z,-2.05
2023-03-20T22:49:22.455Z,-2.00
2023-03-20T22:52:07.730Z,-1.93
2023-03-20T22:54:36.053Z,-2.10
2023-03-20T22:57:03.188Z,-2.03
2023-03-20T22:59:29.886Z,-1.87
2023-03-20T23:01:56.545Z,-1.90
2023-03-20T23:04:23.281Z,-1.94
2023-03-20T23:06:50.020Z,-2.08
2023-03-20T23:09:18.116Z,-2.12
2023-03-20T23:11:44.734Z,-2.24
2023-03-20T23:14:21.283Z,-2.34
2023-03-20T23:16:48.594Z,-2.45
2023-03-20T23:19:15.672Z,-2.37
2023-03-20T23:21:42.305Z,-2.47
2023-03-20T23:24:11.035Z,-2.60
2023-03-20T23:26:37.692Z,-2.47
2023-03-20T23:29:05.764Z,-2.47
2023-03-20T23:31:32.628Z,-2.41
2023-03-20T23:33:59.373Z,-2.34
2023-03-20T23:36:42.071Z,-2.21
2023-03-20T23:39:11.767Z,-2.16
2023-03-20T23:44:26.562Z,-2.07
2023-03-20T23:46:55.491Z,-2.12
2023-03-20T23:49:22.989Z,-2.14
2023-03-20T23:51:49.665Z,-2.17
2023-03-20T23:54:16.377Z,-2.14
2023-03-20T23:56:43.063Z,-2.22
2023-03-20T23:59:20.511Z,-2.39
